Time;durP1;ratioP1;P1;durP2;ratioP2;P2;SDS_P1;SDS_P2;PMS_P1;PMS_P2;Temp;Humidity;BMP_temperature;BMP_pressure;BME280_temperature;BME280_humidity;BME280_pressure;Samples;Min_cycle;Max_cycle;Signal;HPM_P1;HPM_P2
2023/12/14 00:01:45;;;;;;;6.13;2.40;;;;;;;4.78;100.00;100483.41;6274883;28;20053;-75
2023/12/14 00:04:47;;;;;;;3.92;2.35;;;;;;;4.79;100.00;100494.66;6275253;28;20045;-75
2023/12/14 00:07:49;;;;;;;3.67;2.00;;;;;;;4.79;100.00;100497.25;6273452;28;20045;-75
2023/12/14 00:10:51;;;;;;;3.47;1.83;;;;;;;4.77;100.00;100512.09;6266446;28;20377;-75
2023/12/14 00:13:52;;;;;;;4.30;1.90;;;;;;;4.65;100.00;100517.69;6257405;28;20054;-75
2023/12/14 00:16:53;;;;;;;4.43;2.30;;;;;;;4.58;100.00;100525.69;6271557;28;20056;-75
2023/12/14 00:19:55;;;;;;;2.97;1.70;;;;;;;4.68;100.00;100536.66;6267024;28;20048;-75
2023/12/14 00:22:57;;;;;;;3.50;1.98;;;;;;;4.74;100.00;100530.41;6271981;28;20434;-75
2023/12/14 00:25:59;;;;;;;2.63;1.75;;;;;;;4.79;100.00;100554.53;6274969;28;20064;-75
2023/12/14 00:29:00;;;;;;;3.42;1.80;;;;;;;4.70;100.00;100557.44;6263199;28;20052;-75
2023/12/14 00:32:01;;;;;;;3.38;1.90;;;;;;;4.69;100.00;100558.34;6263902;28;20465;-75
2023/12/14 00:35:03;;;;;;;2.42;1.77;;;;;;;4.71;100.00;100559.13;6274827;28;20053;-75
2023/12/14 00:38:05;;;;;;;2.45;1.77;;;;;;;4.69;100.00;100563.53;6274980;28;20060;-75
2023/12/14 00:41:07;;;;;;;2.78;1.98;;;;;;;4.67;100.00;100563.56;6274795;28;20045;-75
2023/12/14 00:44:08;;;;;;;4.30;2.00;;;;;;;4.66;100.00;100566.25;6274597;28;20049;-75
2023/12/14 00:47:09;;;;;;;3.53;1.98;;;;;;;4.67;100.00;100571.38;6274933;28;20056;-75
2023/12/14 00:50:11;;;;;;;2.85;1.83;;;;;;;4.71;100.00;100585.16;6274487;28;20365;-75
2023/12/14 00:53:13;;;;;;;3.60;2.20;;;;;;;4.65;100.00;100585.38;6274744;28;20235;-74
2023/12/14 00:56:15;;;;;;;6.03;1.70;;;;;;;4.69;100.00;100586.97;6274432;28;20048;-75
2023/12/14 00:59:16;;;;;;;3.63;2.00;;;;;;;4.66;100.00;100598.31;6274822;28;20433;-73
2023/12/14 01:02:17;;;;;;;4.75;2.42;;;;;;;4.71;100.00;100598.16;6274525;28;20053;-75
2023/12/14 01:05:19;;;;;;;3.67;2.30;;;;;;;4.58;100.00;100615.91;6279084;28;20045;-75
2023/12/14 01:08:21;;;;;;;3.47;2.08;;;;;;;4.56;100.00;100626.38;6278941;28;20053;-75
2023/12/14 01:11:23;;;;;;;3.47;2.00;;;;;;;4.58;100.00;100623.72;6279157;28;20446;-75
2023/12/14 01:14:24;;;;;;;3.13;2.10;;;;;;;4.56;100.00;100628.13;6278907;28;20053;-75
2023/12/14 01:17:25;;;;;;;4.93;3.03;;;;;;;4.57;100.00;100616.81;6278752;28;20132;-75
2023/12/14 01:20:27;;;;;;;4.05;2.28;;;;;;;4.60;100.00;100634.97;6278841;28;20049;-75
2023/12/14 01:23:29;;;;;;;7.57;2.75;;;;;;;4.65;100.00;100638.25;6278467;28;20433;-75
2023/12/14 01:26:31;;;;;;;4.13;2.38;;;;;;;4.59;100.00;100638.47;6278982;28;20049;-75
2023/12/14 01:29:32;;;;;;;3.70;2.45;;;;;;;4.63;100.00;100641.78;6278474;28;20041;-75
2023/12/14 01:32:33;;;;;;;7.03;3.58;;;;;;;4.67;100.00;100653.81;6278805;28;20048;-75
2023/12/14 01:35:35;;;;;;;4.43;2.05;;;;;;;4.76;100.00;100659.59;6278402;28;20429;-75
2023/12/14 01:38:37;;;;;;;3.47;1.92;;;;;;;4.60;100.00;100670.53;6278366;28;20060;-75
2023/12/14 01:41:39;;;;;;;5.82;2.88;;;;;;;4.56;100.00;100672.38;6278265;28;20353;-75
2023/12/14 01:44:40;;;;;;;4.82;2.53;;;;;;;4.50;100.00;100672.56;6278444;28;20052;-75
2023/12/14 01:47:42;;;;;;;2.97;2.13;;;;;;;4.49;100.00;100683.84;6278313;28;20356;-75
2023/12/14 01:50:43;;;;;;;4.30;2.45;;;;;;;4.48;100.00;100679.53;6278028;28;20128;-75
2023/12/14 01:53:46;;;;;;;3.53;2.00;;;;;;;4.45;100.00;100690.03;6278234;28;20055;-75
2023/12/14 01:56:47;;;;;;;3.78;2.30;;;;;;;4.41;100.00;100694.50;6278146;28;20430;-75
2023/12/14 01:59:49;;;;;;;3.40;2.33;;;;;;;4.43;100.00;100697.91;6278072;28;20155;-75
2023/12/14 02:02:50;;;;;;;4.30;2.30;;;;;;;4.48;100.00;100700.38;6277900;28;20079;-75
2023/12/14 02:05:51;;;;;;;4.22;2.28;;;;;;;4.47;100.00;100698.66;6277775;28;20045;-75
2023/12/14 02:08:54;;;;;;;3.42;2.38;;;;;;;4.42;100.00;100696.19;6279021;22;20385;-71
2023/12/14 02:11:55;;;;;;;4.60;1.90;;;;;;;4.45;100.00;100708.25;6251681;28;20056;-71
2023/12/14 02:14:57;;;;;;;3.28;2.05;;;;;;;4.41;100.00;100710.09;6263852;28;20053;-71
2023/12/14 02:17:58;;;;;;;3.90;1.95;;;;;;;4.46;100.00;100705.63;6272618;28;20053;-72
2023/12/14 02:20:59;;;;;;;4.43;1.85;;;;;;;4.48;100.00;100716.81;6269032;28;20044;-71
2023/12/14 02:24:02;;;;;;;4.63;1.95;;;;;;;4.44;100.00;100722.16;6266513;28;20045;-72
2023/12/14 02:27:04;;;;;;;4.90;2.75;;;;;;;4.42;100.00;100730.03;6263411;28;20365;-72
2023/12/14 02:30:07;;;;;;;6.35;2.63;;;;;;;4.43;100.00;100736.06;6269052;28;20056;-72
2023/12/14 02:33:08;;;;;;;4.63;2.50;;;;;;;4.51;100.00;100732.34;6277516;28;20060;-72
2023/12/14 02:36:09;;;;;;;3.88;2.22;;;;;;;4.43;100.00;100742.13;6276635;28;20049;-72
2023/12/14 02:39:12;;;;;;;4.60;2.22;;;;;;;4.43;100.00;100736.06;6277225;28;20052;-72
2023/12/14 02:42:13;;;;;;;4.93;2.38;;;;;;;4.49;100.00;100739.34;6277107;28;20045;-72
2023/12/14 02:45:14;;;;;;;2.80;1.83;;;;;;;4.54;100.00;100734.88;6276994;28;20056;-72
2023/12/14 02:48:16;;;;;;;5.00;3.10;;;;;;;4.42;100.00;100732.63;6276819;28;20045;-72
2023/12/14 02:51:17;;;;;;;5.90;2.60;;;;;;;4.45;100.00;100742.06;6276826;28;20041;-71
2023/12/14 02:54:20;;;;;;;5.00;2.45;;;;;;;4.46;100.00;100742.06;6276552;28;20045;-71
2023/12/14 02:57:21;;;;;;;4.60;2.40;;;;;;;4.45;100.00;100748.16;6276924;28;20366;-72
2023/12/14 03:00:23;;;;;;;10.30;2.60;;;;;;;4.47;100.00;100754.16;6276569;28;20041;-71
2023/12/14 03:03:24;;;;;;;4.05;2.50;;;;;;;4.47;100.00;100754.16;6276557;28;20056;-72
2023/12/14 03:06:25;;;;;;;4.70;2.45;;;;;;;4.51;100.00;100753.19;6276210;28;20060;-72
2023/12/14 03:09:28;;;;;;;5.90;2.60;;;;;;;4.50;100.00;100751.47;6276281;28;20049;-72
2023/12/14 03:12:29;;;;;;;3.72;2.40;;;;;;;4.50;100.00;100754.09;6276391;28;20045;-72
2023/12/14 03:15:30;;;;;;;4.43;2.55;;;;;;;4.46;100.00;100757.66;6275863;28;20349;-72
2023/12/14 03:18:32;;;;;;;4.18;2.38;;;;;;;4.48;100.00;100753.25;6276322;28;20053;-72
2023/12/14 03:21:33;;;;;;;6.47;3.05;;;;;;;4.37;100.00;100765.72;6276000;28;20426;-72
2023/12/14 03:24:36;;;;;;;5.05;2.63;;;;;;;4.38;100.00;100767.41;6276088;28;20044;-71
2023/12/14 03:27:38;;;;;;;4.43;2.55;;;;;;;4.39;100.00;100774.31;6275426;28;20118;-71
2023/12/14 03:30:39;;;;;;;3.53;1.98;;;;;;;4.33;100.00;100782.31;6276003;28;20045;-71
2023/12/14 03:33:41;;;;;;;4.03;2.22;;;;;;;4.30;100.00;100791.03;6275565;28;20468;-72
2023/12/14 03:36:42;;;;;;;3.90;2.25;;;;;;;4.35;100.00;100797.88;6275744;28;20049;-71
2023/12/14 03:39:45;;;;;;;4.88;2.10;;;;;;;4.39;100.00;100795.13;6275963;28;20049;-71
2023/12/14 03:42:46;;;;;;;7.00;2.53;;;;;;;4.36;100.00;100803.06;6275485;28;20053;-71
2023/12/14 03:45:47;;;;;;;4.00;2.17;;;;;;;4.38;100.00;100809.06;6275535;28;20053;-71
2023/12/14 03:48:48;;;;;;;4.30;2.35;;;;;;;4.37;100.00;100806.50;6275344;28;20331;-71
2023/12/14 03:51:50;;;;;;;6.10;2.65;;;;;;;4.30;100.00;100811.00;6275586;28;20072;-71
2023/12/14 03:54:52;;;;;;;3.72;2.10;;;;;;;4.29;100.00;100817.09;6275378;28;20473;-71
2023/12/14 03:57:54;;;;;;;5.13;2.50;;;;;;;4.35;100.00;100824.72;6275513;28;20053;-71
2023/12/14 04:00:55;;;;;;;5.70;2.15;;;;;;;4.39;100.00;100820.31;6250454;28;20050;-72
2023/12/14 04:03:56;;;;;;;7.63;2.03;;;;;;;4.36;100.00;100823.84;6250057;28;20064;-71
2023/12/14 04:06:58;;;;;;;5.05;2.47;;;;;;;4.35;100.00;100827.34;6249762;28;20049;-71
2023/12/14 04:10:00;;;;;;;6.53;2.78;;;;;;;4.37;100.00;100832.50;6250475;28;20049;-71
2023/12/14 04:13:02;;;;;;;3.63;2.38;;;;;;;4.36;100.00;100839.47;6247003;28;20049;-71
2023/12/14 04:16:03;;;;;;;4.70;2.33;;;;;;;4.41;100.00;100845.41;6245467;28;20056;-71
2023/12/14 04:19:09;;;;;;;5.07;2.80;;;;;;;4.41;100.00;100847.16;6247706;28;20129;-71
2023/12/14 04:22:11;;;;;;;4.63;2.42;;;;;;;4.42;100.00;100861.88;6230400;28;20165;-71
2023/12/14 04:25:14;;;;;;;4.47;2.38;;;;;;;4.32;100.00;100861.25;6228509;28;20053;-71
2023/12/14 04:28:15;;;;;;;6.32;2.95;;;;;;;4.21;100.00;100863.25;6243308;28;20354;-71
2023/12/14 04:31:16;;;;;;;3.45;2.13;;;;;;;4.26;100.00;100858.78;6238712;28;20050;-71
2023/12/14 04:34:18;;;;;;;4.30;2.35;;;;;;;4.23;100.00;100872.75;6237179;28;20426;-71
2023/12/14 04:37:20;;;;;;;5.78;2.67;;;;;;;4.22;100.00;100884.00;6249625;28;20052;-71
2023/12/14 04:40:22;;;;;;;4.57;2.45;;;;;;;4.27;100.00;100881.28;6255056;28;20350;-71
2023/12/14 04:43:24;;;;;;;3.20;2.03;;;;;;;4.33;100.00;100889.81;6253261;28;20050;-71
2023/12/14 04:46:25;;;;;;;4.63;2.70;;;;;;;4.37;100.00;100889.75;6242476;28;20163;-71
2023/12/14 04:49:26;;;;;;;3.85;2.25;;;;;;;4.35;100.00;100899.31;6241530;28;20434;-71
2023/12/14 04:52:28;;;;;;;4.28;2.13;;;;;;;4.38;100.00;100912.28;6246293;28;20045;-71
2023/12/14 04:55:30;;;;;;;4.32;2.45;;;;;;;4.37;100.00;100918.38;6247075;28;20054;-71
2023/12/14 04:58:32;;;;;;;4.90;2.20;;;;;;;4.38;100.00;100913.13;6245112;28;20350;-71
2023/12/14 05:01:33;;;;;;;5.50;2.60;;;;;;;4.40;100.00;100915.66;6257618;28;20045;-71
2023/12/14 05:04:34;;;;;;;4.25;2.33;;;;;;;4.43;100.00;100915.59;6271081;28;20052;-71
2023/12/14 05:07:36;;;;;;;4.03;2.10;;;;;;;4.46;100.00;100924.19;6262906;28;20041;-71
2023/12/14 05:10:38;;;;;;;3.63;1.98;;;;;;;4.40;100.00;100920.88;6265307;28;20052;-71
2023/12/14 05:13:40;;;;;;;7.15;2.20;;;;;;;4.44;100.00;100931.16;6278820;28;20152;-71
2023/12/14 05:16:41;;;;;;;4.68;2.28;;;;;;;4.46;100.00;100947.63;6278948;28;20049;-72
2023/12/14 05:19:42;;;;;;;4.00;2.33;;;;;;;4.40;100.00;100949.50;6248121;28;20061;-71
2023/12/14 05:22:44;;;;;;;5.57;2.10;;;;;;;4.40;100.00;100958.16;6240053;28;20053;-71
2023/12/14 05:25:47;;;;;;;7.25;2.13;;;;;;;4.32;100.00;100957.50;6239860;28;20346;-71
2023/12/14 05:28:48;;;;;;;4.35;2.55;;;;;;;4.36;100.00;100961.75;6241780;28;20049;-71
2023/12/14 05:31:50;;;;;;;3.38;2.00;;;;;;;4.39;100.00;100973.81;6240560;28;20042;-72
2023/12/14 05:34:51;;;;;;;3.80;2.05;;;;;;;4.44;100.00;100966.75;6245084;28;20349;-71
2023/12/14 05:37:52;;;;;;;3.40;2.08;;;;;;;4.46;100.00;100971.03;6253512;28;20057;-71
2023/12/14 05:40:55;;;;;;;3.55;2.08;;;;;;;4.50;100.00;100979.63;6253661;28;20056;-71
2023/12/14 05:43:56;;;;;;;2.95;1.90;;;;;;;4.47;100.00;100993.56;6253561;28;20049;-71
2023/12/14 05:46:58;;;;;;;4.05;2.25;;;;;;;4.47;100.00;100988.34;6253292;28;20350;-71
2023/12/14 05:49:59;;;;;;;4.38;2.47;;;;;;;4.44;100.00;101001.41;6253129;28;20132;-71
2023/12/14 05:53:00;;;;;;;3.92;2.35;;;;;;;4.40;100.00;100986.78;6253321;28;20184;-71
2023/12/14 05:56:03;;;;;;;6.05;1.95;;;;;;;4.43;100.00;100998.88;6253366;28;20049;-71
2023/12/14 05:59:04;;;;;;;2.50;1.90;;;;;;;4.35;100.00;101006.00;6252926;28;20054;-71
2023/12/14 06:02:06;;;;;;;3.65;2.25;;;;;;;4.36;100.00;101011.19;6259000;28;20041;-72
2023/12/14 06:05:08;;;;;;;4.40;2.00;;;;;;;4.37;100.00;101015.50;6269378;28;20128;-71
2023/12/14 06:08:10;;;;;;;3.63;2.05;;;;;;;4.42;100.00;101020.59;6277241;28;20052;-71
2023/12/14 06:11:12;;;;;;;5.57;1.63;;;;;;;4.44;100.00;101017.03;6277653;28;20056;-71
2023/12/14 06:14:14;;;;;;;3.55;1.98;;;;;;;4.48;100.00;101026.47;6277281;28;20044;-71
2023/12/14 06:17:15;;;;;;;3.58;2.05;;;;;;;4.38;100.00;101025.00;6267297;28;20133;-72
2023/12/14 06:20:17;;;;;;;4.32;1.95;;;;;;;4.32;100.00;101033.81;6266195;28;20053;-71
2023/12/14 06:23:19;;;;;;;2.33;1.80;;;;;;;4.33;100.00;101037.25;6262299;28;20049;-71
2023/12/14 06:26:21;;;;;;;3.92;2.03;;;;;;;4.38;100.00;101043.22;6268372;28;20049;-72
2023/12/14 06:29:23;;;;;;;1.98;1.27;;;;;;;4.36;100.00;101042.41;6262062;28;20358;-71
2023/12/14 06:32:24;;;;;;;2.28;1.55;;;;;;;4.36;100.00;101046.72;6264835;28;20052;-71
2023/12/14 06:35:25;;;;;;;3.70;1.83;;;;;;;4.32;100.00;101054.63;6277223;28;20052;-71
2023/12/14 06:38:27;;;;;;;6.13;1.92;;;;;;;4.38;100.00;101048.41;6270663;28;20049;-71
2023/12/14 06:41:30;;;;;;;3.80;2.00;;;;;;;4.31;100.00;101050.31;6269300;28;20437;-71
2023/12/14 06:44:31;;;;;;;2.63;1.83;;;;;;;4.27;100.00;101058.19;6276768;28;20052;-71
2023/12/14 06:47:32;;;;;;;2.42;1.55;;;;;;;4.33;100.00;101058.06;6276413;28;20135;-71
2023/12/14 06:50:34;;;;;;;3.10;1.58;;;;;;;4.36;100.00;101059.72;6264690;28;20049;-71
2023/12/14 06:53:37;;;;;;;2.42;1.80;;;;;;;4.40;100.00;101072.63;6256674;28;20052;-71
2023/12/14 06:56:39;;;;;;;1.85;1.55;;;;;;;4.47;100.00;101079.44;6233423;28;20187;-71
2023/12/14 06:59:41;;;;;;;3.08;1.58;;;;;;;4.41;100.00;101089.13;6232266;28;20053;-71
2023/12/14 07:02:44;;;;;;;3.33;1.90;;;;;;;4.27;100.00;101108.50;6255977;28;20049;-71
2023/12/14 07:05:45;;;;;;;2.45;1.65;;;;;;;4.33;100.00;101110.09;6248287;28;20350;-71
2023/12/14 07:08:47;;;;;;;7.07;1.60;;;;;;;4.42;100.00;101116.84;6253670;28;20046;-71
2023/12/14 07:11:50;;;;;;;3.35;1.95;;;;;;;4.51;100.00;101114.91;6271434;28;20051;-72
2023/12/14 07:14:51;;;;;;;2.53;1.85;;;;;;;4.48;100.00;101120.16;6275592;28;20060;-71
2023/12/14 07:17:52;;;;;;;3.35;1.77;;;;;;;4.49;100.00;101123.63;6276404;28;20056;-71
2023/12/14 07:20:54;;;;;;;2.08;1.48;;;;;;;4.44;100.00;101120.25;6276174;28;20045;-71
2023/12/14 07:23:55;;;;;;;2.38;1.60;;;;;;;4.47;100.00;101123.66;6275779;28;20048;-71
2023/12/14 07:26:57;;;;;;;3.88;1.80;;;;;;;4.47;100.00;101141.03;6250345;28;20458;-71
2023/12/14 07:29:59;;;;;;;2.08;1.40;;;;;;;4.44;100.00;101154.09;6239521;28;20049;-71
2023/12/14 07:33:00;;;;;;;1.73;1.42;;;;;;;4.30;100.00;101155.25;6238963;28;20053;-71
2023/12/14 07:36:02;;;;;;;1.73;1.30;;;;;;;4.31;100.00;101158.69;6262793;28;20053;-71
2023/12/14 07:39:03;;;;;;;2.13;1.48;;;;;;;4.31;100.00;101171.69;6260333;28;20052;-71
2023/12/14 07:42:06;;;;;;;1.85;1.20;;;;;;;4.34;100.00;101171.66;6245376;28;20402;-71
2023/12/14 07:45:09;;;;;;;1.40;1.25;;;;;;;4.37;100.00;101181.16;6244050;28;20041;-71
2023/12/14 07:48:10;;;;;;;1.65;1.33;;;;;;;4.39;100.00;101190.63;6265745;28;20049;-71
2023/12/14 07:51:13;;;;;;;1.42;1.10;;;;;;;4.29;100.00;101189.97;6265170;28;20438;-71
2023/12/14 07:54:14;;;;;;;1.98;1.25;;;;;;;4.30;100.00;101203.81;6275126;28;20131;-71
2023/12/14 07:57:17;;;;;;;1.45;1.15;;;;;;;4.32;100.00;101208.13;6275591;28;20048;-71
2023/12/14 08:00:19;;;;;;;1.70;1.38;;;;;;;4.36;100.00;101211.53;6263091;28;20053;-71
2023/12/14 08:03:20;;;;;;;2.33;1.40;;;;;;;4.32;100.00;101222.88;6246399;28;20173;-71
2023/12/14 08:06:21;;;;;;;4.88;1.70;;;;;;;4.37;100.00;101234.03;6244828;28;20048;-71
2023/12/14 08:09:23;;;;;;;2.30;1.42;;;;;;;4.44;100.00;101247.78;6258488;28;20060;-71
2023/12/14 08:12:26;;;;;;;2.75;1.27;;;;;;;4.46;100.00;101243.41;6249800;28;20049;-72
2023/12/14 08:15:27;;;;;;;1.52;1.10;;;;;;;4.44;100.00;101243.41;6250134;28;20080;-71
2023/12/14 08:18:29;;;;;;;1.23;1.13;;;;;;;4.49;100.00;101249.38;6255817;28;20052;-72
2023/12/14 08:21:30;;;;;;;1.88;1.13;;;;;;;4.50;100.00;101252.88;6267155;28;20049;-73
2023/12/14 08:24:32;;;;;;;1.40;0.90;;;;;;;4.54;100.00;101267.50;6265444;28;20049;-72
2023/12/14 08:27:35;;;;;;;1.88;1.00;;;;;;;4.60;100.00;101261.34;6274691;28;20053;-72
2023/12/14 08:30:38;;;;;;;3.55;1.90;;;;;;;4.43;100.00;101272.09;6274878;28;20056;-72
2023/12/14 08:33:42;;;;;;;3.35;1.75;;;;;;;4.49;100.00;101272.81;6262369;28;20038;-73
2023/12/14 08:36:43;;;;;;;5.55;2.63;;;;;;;4.58;100.00;101276.97;6253153;28;20053;-72
2023/12/14 08:39:44;;;;;;;7.00;3.55;;;;;;;4.61;100.00;101276.06;6263739;28;20060;-73
2023/12/14 08:42:49;;;;;;;9.00;4.18;;;;;;;4.60;100.00;101277.81;6260876;28;20056;-72
2023/12/14 08:45:50;;;;;;;5.60;3.22;;;;;;;4.69;100.00;101275.03;6273625;28;20081;-72
2023/12/14 08:48:52;;;;;;;4.97;2.15;;;;;;;4.71;100.00;101275.84;6264778;28;20049;-73
2023/12/14 08:51:53;;;;;;;4.38;2.33;;;;;;;4.76;100.00;101287.00;6263108;28;20438;-73
2023/12/14 08:54:55;;;;;;;4.68;2.65;;;;;;;4.82;100.00;101289.50;6261799;28;20045;-73
2023/12/14 08:57:58;;;;;;;3.97;2.03;;;;;;;4.85;100.00;101288.56;6268785;28;20053;-73
2023/12/14 09:00:59;;;;;;;6.93;3.15;;;;;;;4.88;100.00;101298.94;6258983;28;20045;-73
2023/12/14 09:04:01;;;;;;;5.13;2.20;;;;;;;4.90;100.00;101304.09;6256348;28;20068;-72
2023/12/14 09:07:04;;;;;;;3.55;1.77;;;;;;;4.85;100.00;101306.81;6257376;28;20076;-73
2023/12/14 09:10:07;;;;;;;2.15;1.50;;;;;;;4.75;100.00;101315.69;6259073;28;20450;-73
2023/12/14 09:13:10;;;;;;;1.85;1.42;;;;;;;4.79;100.00;101319.97;6249708;28;20119;-72
2023/12/14 09:16:11;;;;;;;1.90;1.38;;;;;;;4.76;100.00;101313.06;6249559;28;20049;-70
2023/12/14 09:19:12;;;;;;;1.75;1.20;;;;;;;4.79;100.00;101313.00;6249647;28;20053;-70
2023/12/14 09:22:14;;;;;;;2.97;1.40;;;;;;;4.74;100.00;101319.19;6251142;28;20045;-70
2023/12/14 09:25:15;;;;;;;1.92;1.23;;;;;;;4.79;100.00;101326.03;6267100;28;20053;-71
2023/12/14 09:28:18;;;;;;;1.38;1.10;;;;;;;4.65;100.00;101335.00;6256105;28;20049;-69
2023/12/14 09:31:19;;;;;;;2.30;1.15;;;;;;;4.67;100.00;101338.41;6262283;28;20045;-72
2023/12/14 09:34:21;;;;;;;2.45;1.20;;;;;;;4.62;100.00;101341.09;6253766;28;20051;-69
2023/12/14 09:37:22;;;;;;;1.77;1.20;;;;;;;4.69;100.00;101342.72;6253644;28;20049;-70
2023/12/14 09:40:23;;;;;;;2.28;1.33;;;;;;;4.76;100.00;101341.69;6253675;28;20088;-70
2023/12/14 09:43:26;;;;;;;3.20;1.63;;;;;;;4.77;100.00;101348.63;6253622;28;20184;-70
2023/12/14 09:46:28;;;;;;;11.38;5.05;;;;;;;4.80;100.00;101345.94;6256326;28;20045;-70
2023/12/14 09:49:31;;;;;;;4.18;2.00;;;;;;;4.79;100.00;101356.41;6269939;28;20373;-70
2023/12/14 09:52:33;;;;;;;2.75;1.40;;;;;;;4.78;100.00;101357.31;6271743;28;20350;-70
2023/12/14 09:55:34;;;;;;;2.83;1.77;;;;;;;4.80;100.00;101366.78;6269676;28;20354;-70
2023/12/14 09:58:37;;;;;;;2.63;1.48;;;;;;;4.88;100.00;101373.59;6278065;28;20049;-70
2023/12/14 10:01:39;;;;;;;4.32;2.28;;;;;;;5.02;100.00;101380.25;6275711;28;20506;-70
2023/12/14 10:04:40;;;;;;;3.65;1.92;;;;;;;4.95;100.00;101383.00;6271503;28;20091;-70
2023/12/14 10:07:43;;;;;;;5.40;1.95;;;;;;;5.03;100.00;101387.16;6276391;28;20045;-70
2023/12/14 10:10:45;;;;;;;4.20;1.90;;;;;;;5.02;100.00;101401.09;6261489;28;20461;-70
2023/12/14 10:13:48;;;;;;;6.95;2.40;;;;;;;5.08;100.00;101403.56;6271629;28;20426;-69
2023/12/14 10:16:50;;;;;;;4.57;1.83;;;;;;;5.03;100.00;101402.78;6230914;28;20050;-70
2023/12/14 10:19:51;;;;;;;3.97;2.00;;;;;;;5.03;100.00;101405.41;6228115;28;20053;-70
2023/12/14 10:22:55;;;;;;;3.70;1.75;;;;;;;4.93;100.00;101416.03;6228312;28;20042;-70
2023/12/14 10:25:58;;;;;;;4.45;2.10;;;;;;;4.93;100.00;101409.06;6227793;28;20155;-70
2023/12/14 10:29:02;;;;;;;3.72;1.85;;;;;;;5.03;100.00;101415.81;6228155;28;20058;-70
2023/12/14 10:32:06;;;;;;;4.00;2.00;;;;;;;5.00;100.00;101423.72;6227743;28;20089;-70
2023/12/14 10:35:08;;;;;;;3.80;1.88;;;;;;;5.02;100.00;101428.88;6227899;28;20435;-70
2023/12/14 10:38:11;;;;;;;9.00;2.47;;;;;;;4.98;100.00;101432.44;6249944;28;20052;-70
2023/12/14 10:41:14;;;;;;;5.10;2.58;;;;;;;5.05;100.00;101437.50;6252143;28;20403;-69
2023/12/14 10:44:18;;;;;;;5.07;2.58;;;;;;;4.97;100.00;101442.00;6252342;28;20045;-70
2023/12/14 10:47:20;;;;;;;4.38;2.25;;;;;;;4.98;100.00;101442.84;6252025;28;20438;-69
2023/12/14 10:50:22;;;;;;;6.85;3.13;;;;;;;5.06;100.00;101438.34;6252262;28;20052;-69
2023/12/14 10:53:24;;;;;;;7.07;2.90;;;;;;;5.22;100.00;101444.09;6251606;28;20045;-70
2023/12/14 10:56:26;;;;;;;7.75;3.10;;;;;;;5.22;100.00;101446.72;6252101;28;20054;-70
2023/12/14 10:59:29;;;;;;;8.00;3.10;;;;;;;5.13;100.00;101437.31;6253660;28;20056;-68
2023/12/14 11:02:37;;;;;;;6.97;2.95;;;;;;;5.17;100.00;101456.38;6227429;28;20053;-70
2023/12/14 11:05:39;;;;;;;7.57;3.00;;;;;;;5.12;100.00;101453.84;6227069;28;20064;-70
2023/12/14 11:08:40;;;;;;;6.65;3.00;;;;;;;5.14;100.00;101457.31;6239044;28;20053;-71
2023/12/14 11:11:44;;;;;;;8.80;3.13;;;;;;;5.14;100.00;101457.31;6257899;28;20058;-70
2023/12/14 11:14:47;;;;;;;6.60;3.20;;;;;;;5.16;100.00;101462.47;6251447;28;20088;-69
2023/12/14 11:18:21;;;;;;;10.63;3.35;;;;;;;5.25;100.00;101462.28;6251415;28;20056;-69
2023/12/14 11:21:24;;;;;;;5.82;2.85;;;;;;;5.26;100.00;101477.03;6267644;28;20080;-69
2023/12/14 11:24:27;;;;;;;8.50;3.25;;;;;;;5.28;100.00;101477.88;6262721;28;20132;-69
2023/12/14 11:27:30;;;;;;;10.73;3.25;;;;;;;5.20;100.00;101482.38;6275933;28;20056;-69
2023/12/14 11:30:33;;;;;;;8.57;3.60;;;;;;;5.13;100.00;101483.38;6275768;28;20056;-69
2023/12/14 11:33:35;;;;;;;7.75;3.50;;;;;;;5.14;100.00;101482.50;6275470;28;20353;-70
2023/12/14 11:36:39;;;;;;;9.27;3.70;;;;;;;5.20;100.00;101487.59;6275422;28;20049;-70
2023/12/14 11:39:41;;;;;;;7.57;3.67;;;;;;;5.21;100.00;101486.69;6273899;28;20428;-71
2023/12/14 11:42:46;;;;;;;8.52;3.92;;;;;;;5.12;100.00;101489.47;6259511;28;20060;-70
2023/12/14 11:45:49;;;;;;;6.65;3.30;;;;;;;5.19;100.00;101497.16;6274672;28;20052;-70
2023/12/14 11:48:51;;;;;;;7.10;3.53;;;;;;;5.30;100.00;101504.75;6275143;28;20129;-70
2023/12/14 11:51:53;;;;;;;6.68;3.78;;;;;;;5.27;100.00;101490.06;6275222;28;20056;-70
2023/12/14 11:54:54;;;;;;;8.32;3.53;;;;;;;5.38;100.00;101507.22;6275421;28;20138;-69
2023/12/14 11:57:56;;;;;;;7.93;4.00;;;;;;;5.44;100.00;101509.69;6275216;28;20057;-69
2023/12/14 12:01:11;;;;;;;9.55;4.90;;;;;;;5.44;100.00;101509.69;6275267;28;20072;-71
2023/12/14 12:04:13;;;;;;;8.82;3.88;;;;;;;5.48;100.00;101511.34;6275012;28;20049;-71
2023/12/14 12:07:17;;;;;;;11.73;4.10;;;;;;;5.30;100.00;101505.59;6274947;28;20052;-72
2023/12/14 12:10:19;;;;;;;7.65;3.80;;;;;;;5.31;100.00;101511.69;6252595;28;20060;-70
2023/12/14 12:13:21;;;;;;;11.32;4.65;;;;;;;5.38;100.00;101518.50;6250195;28;20434;-70
2023/12/14 12:16:25;;;;;;;12.15;4.60;;;;;;;5.46;100.00;101516.59;6253178;28;20071;-72
2023/12/14 12:19:26;;;;;;;8.77;3.65;;;;;;;5.45;100.00;101514.91;6250236;28;20069;-69
2023/12/14 12:22:27;;;;;;;9.15;4.53;;;;;;;5.49;100.00;101518.28;6258623;28;20041;-71
2023/12/14 12:25:29;;;;;;;8.68;4.45;;;;;;;5.37;100.00;101518.53;6257952;28;20442;-69
2023/12/14 12:28:31;;;;;;;9.57;4.32;;;;;;;5.33;100.00;101529.00;6260292;28;20049;-69
2023/12/14 12:31:34;;;;;;;14.73;5.15;;;;;;;5.25;100.00;101528.28;6249367;28;20053;-68
2023/12/14 12:34:35;;;;;;;8.70;4.18;;;;;;;5.33;100.00;101535.97;6253901;28;20092;-70
2023/12/14 12:37:37;;;;;;;6.18;3.63;;;;;;;5.42;100.00;101540.16;6254258;28;20048;-69
2023/12/14 12:40:39;;;;;;;10.35;3.85;;;;;;;5.31;100.00;101542.94;6266499;28;20526;-70
2023/12/14 12:43:41;;;;;;;8.70;4.15;;;;;;;5.23;100.00;101535.28;6260647;28;20041;-70
2023/12/14 12:46:43;;;;;;;8.93;4.22;;;;;;;5.29;100.00;101544.75;6274518;28;20056;-69
2023/12/14 12:49:44;;;;;;;9.82;4.88;;;;;;;5.36;100.00;101546.34;6247241;28;20049;-70
2023/12/14 12:52:48;;;;;;;11.50;4.55;;;;;;;5.46;100.00;101550.50;6227931;28;20061;-70
2023/12/14 12:55:50;;;;;;;10.93;4.60;;;;;;;5.48;100.00;101550.47;6237744;28;20049;-70
2023/12/14 12:58:53;;;;;;;8.60;4.03;;;;;;;5.44;100.00;101543.59;6244822;28;20471;-69
2023/12/14 13:01:56;;;;;;;9.13;4.25;;;;;;;5.49;100.00;101546.94;6252748;28;20060;-69
2023/12/14 13:04:57;;;;;;;6.95;3.42;;;;;;;5.47;100.00;101547.00;6251948;28;20052;-69
2023/12/14 13:07:59;;;;;;;10.60;5.50;;;;;;;5.48;100.00;101555.66;6241573;28;20049;-69
2023/12/14 13:11:01;;;;;;;10.23;5.00;;;;;;;5.44;100.00;101552.25;6249766;28;20460;-69
2023/12/14 13:14:07;;;;;;;8.80;4.60;;;;;;;5.44;100.00;101557.47;6249054;28;20438;-71
2023/12/14 13:17:10;;;;;;;12.38;5.40;;;;;;;5.57;100.00;101558.97;6247068;28;20128;-71
2023/12/14 13:20:11;;;;;;;11.20;5.15;;;;;;;5.49;100.00;101567.81;6252221;28;20057;-72
2023/12/14 13:23:13;;;;;;;12.13;5.63;;;;;;;5.60;100.00;101563.25;6258003;28;20426;-71
2023/12/14 13:26:14;;;;;;;12.05;5.45;;;;;;;5.61;100.00;101575.41;6265123;28;20071;-71
2023/12/14 13:29:15;;;;;;;11.00;5.03;;;;;;;5.64;100.00;101580.56;6253341;28;20449;-72
2023/12/14 13:32:18;;;;;;;11.35;5.45;;;;;;;5.60;100.00;101571.94;6254610;28;20045;-70
2023/12/14 13:35:19;;;;;;;10.95;5.28;;;;;;;5.64;100.00;101580.56;6266737;28;20045;-70
2023/12/14 13:38:21;;;;;;;9.55;5.25;;;;;;;5.59;100.00;101585.88;6247415;28;20045;-71
2023/12/14 13:41:23;;;;;;;12.95;5.53;;;;;;;5.62;100.00;101584.94;6262371;28;20056;-71
2023/12/14 13:44:24;;;;;;;11.98;5.50;;;;;;;5.54;100.00;101599.84;6255736;28;20050;-71
2023/12/14 13:47:27;;;;;;;10.07;5.13;;;;;;;5.41;100.00;101603.63;6241979;28;20064;-73
2023/12/14 13:50:28;;;;;;;11.05;5.45;;;;;;;5.39;100.00;101605.38;6250664;28;20439;-72
2023/12/14 13:53:30;;;;;;;12.25;5.80;;;;;;;5.42;100.00;101615.75;6257270;28;20041;-72
2023/12/14 13:56:32;;;;;;;14.80;5.68;;;;;;;5.41;100.00;101617.50;6257331;28;21747;-72
2023/12/14 13:59:34;;;;;;;11.75;5.40;;;;;;;5.30;100.00;101624.63;6255943;28;20055;-79
2023/12/14 14:02:36;;;;;;;12.55;5.45;;;;;;;5.29;100.00;101634.19;6243362;28;20065;-72
2023/12/14 14:05:38;;;;;;;10.23;5.25;;;;;;;5.35;100.00;101631.47;6269243;28;20045;-72